首页
METAR-TAF:

METAR-TAF

机场 :

威奇托, 堪薩斯州, 美国

纬度: 37-37N, 经度: 097-16W, 海拔: 418米

当前天气观测

该预报发布于45分钟前的06:55 UTC
风速12节,风向南转西南
温度 24°C
湿度 74%
气压 1012 hPa
能見度: 16.1公里
天空无云

METAR: KIAB 130655Z AUTO 21012KT 10SM CLR 24/19 A2988 RMK AO2 SLP106 T02410189 $

时间: 02:40 (07:40 UTC)

预报

该预报发布于5小时和40分钟前的02:00 UTC
预报有效从13日的 02点(UTC)到 14日的 08点(UTC)
风速9节,风向
能见度10公里或以上
天空无云
成为
从 13日的 05点(UTC)到 13日的 06点(UTC)
风速9节,风向
能见度10公里或以上
少量云层高于12000英尺
成为
从 13日的 14点(UTC)到 13日的 15点(UTC)
风速12节,风向西南,有时为22节阵风
能见度10公里或以上
散云层高于12000英尺
成为
从 13日的 23点(UTC)到 13日的 24点(UTC)
风速10节,风向南转南东,有时为15节阵风
能见度10公里或以上
天空无云

TAF: KIAB 130200Z 1302/1408 18009KT 9999 SKC QNH2985INS BECMG 1305/1306 17009KT 9999 FEW120 WS020/22040KT QNH2988INS BECMG 1314/1315 22012G22KT 9999 SCT120 QNH2982INS BECMG 1323/1324 16010G15KT 9999 SKC QNH2982INS TX36/1320Z TN22/1311Z

超过4000个机场的气象观测和天气预报(METAR&TAF报告)。

可查询的气象台以黄色和红色小点在地图上表示。

将鼠标移到小点上方,可查看气象台名称。

然后点击查看天气观测和预报。

如需切换地图:点击带黑十字的绿色按钮放大地图;点击带横线的绿色按钮缩小地图;或者点击绿色箭头查看邻近地区的地图。


METAR-TAF: